Time;durP1;ratioP1;P1;durP2;ratioP2;P2;SDS_P1;SDS_P2;PMS_P1;PMS_P2;Temp;Humidity;BMP_temperature;BMP_pressure;BME280_temperature;BME280_humidity;BME280_pressure;Samples;Min_cycle;Max_cycle;Signal;HPM_P1;HPM_P2
2023/04/15 00:01:09;;;;;;;3.13;0.88;;;20.40;1.00;;;;;;4991348;28;20043;-35
2023/04/15 00:03:36;;;;;;;3.33;1.23;;;20.40;1.00;;;;;;4990832;28;20132;-36
2023/04/15 00:06:03;;;;;;;2.90;0.88;;;20.40;1.00;;;;;;4991104;28;20051;-35
2023/04/15 00:08:30;;;;;;;3.45;1.25;;;20.40;1.00;;;;;;4990806;28;20092;-35
2023/04/15 00:11:01;;;;;;;2.88;0.88;;;20.30;1.00;;;;;;4973524;28;20101;-36
2023/04/15 00:13:28;;;;;;;2.70;0.90;;;20.30;1.00;;;;;;4990383;28;20045;-36
2023/04/15 00:15:55;;;;;;;1.67;0.75;;;20.30;1.00;;;;;;4991904;28;20053;-35
2023/04/15 00:18:22;;;;;;;3.30;0.80;;;20.30;1.00;;;;;;4993418;28;20047;-36
2023/04/15 00:20:49;;;;;;;4.10;0.98;;;20.30;1.00;;;;;;4995564;28;20508;-35
2023/04/15 00:23:16;;;;;;;3.15;1.00;;;20.20;1.00;;;;;;4994656;28;20050;-36
2023/04/15 00:25:43;;;;;;;3.08;1.00;;;20.20;1.00;;;;;;4995571;28;20502;-35
2023/04/15 00:28:10;;;;;;;3.70;0.90;;;20.20;1.00;;;;;;4995567;28;20069;-35
2023/04/15 00:30:37;;;;;;;3.70;0.82;;;20.20;1.00;;;;;;4995421;28;20052;-35
2023/04/15 00:33:04;;;;;;;3.28;0.75;;;20.20;1.00;;;;;;4994507;28;20133;-35
2023/04/15 00:35:31;;;;;;;2.92;1.23;;;20.20;1.00;;;;;;4995313;28;20113;-35
2023/04/15 00:37:58;;;;;;;6.25;1.17;;;20.10;1.00;;;;;;4977734;28;20053;-35
2023/04/15 00:40:26;;;;;;;2.70;1.15;;;20.10;1.00;;;;;;4977795;28;20503;-35
2023/04/15 00:42:53;;;;;;;3.33;0.80;;;20.10;1.00;;;;;;4994384;28;20038;-35
2023/04/15 00:45:20;;;;;;;1.58;0.65;;;20.10;1.00;;;;;;4977581;28;20489;-35
2023/04/15 00:47:48;;;;;;;2.25;1.13;;;20.10;1.00;;;;;;4977715;28;20050;-35
2023/04/15 00:50:14;;;;;;;4.20;1.70;;;20.00;1.00;;;;;;4977530;28;20046;-35
2023/04/15 00:52:41;;;;;;;1.25;0.50;;;20.00;1.00;;;;;;4976743;28;20059;-35
2023/04/15 00:55:08;;;;;;;4.90;1.40;;;20.00;1.00;;;;;;4977478;28;20053;-35
2023/04/15 00:57:35;;;;;;;4.07;0.80;;;20.00;1.00;;;;;;4977574;28;20042;-35
2023/04/15 01:00:12;;;;;;;2.85;0.75;;;19.90;1.00;;;;;;4994982;28;20097;-35
2023/04/15 01:02:39;;;;;;;4.82;1.10;;;19.90;1.00;;;;;;4993970;28;20039;-35
2023/04/15 01:05:07;;;;;;;6.90;1.67;;;19.90;1.00;;;;;;4977473;28;20066;-35
2023/04/15 01:07:34;;;;;;;3.25;1.77;;;19.90;1.00;;;;;;4994825;28;20051;-35
2023/04/15 01:10:03;;;;;;;2.70;0.60;;;19.80;1.00;;;;;;4977244;28;20450;-35
2023/04/15 01:12:32;;;;;;;3.58;1.08;;;19.80;1.00;;;;;;4994192;28;20053;-36
2023/04/15 01:14:59;;;;;;;3.63;0.90;;;19.90;1.00;;;;;;4994232;28;20043;-35
2023/04/15 01:17:27;;;;;;;5.35;1.10;;;19.80;1.00;;;;;;4977068;28;20078;-35
2023/04/15 01:19:56;;;;;;;2.85;1.15;;;19.80;1.00;;;;;;4994549;28;20042;-35
2023/04/15 01:22:25;;;;;;;3.03;0.90;;;19.80;1.00;;;;;;4976457;28;20035;-35
2023/04/15 01:25:05;;;;;;;2.80;1.00;;;19.80;1.00;;;;;;4994186;28;20042;-35
2023/04/15 01:27:34;;;;;;;4.63;0.98;;;19.80;1.00;;;;;;4961617;28;20101;-35
2023/04/15 01:30:04;;;;;;;4.60;0.80;;;19.70;1.00;;;;;;4975904;28;20113;-35
2023/04/15 01:32:31;;;;;;;4.00;0.95;;;19.70;1.00;;;;;;4976419;28;20109;-35
2023/04/15 01:34:58;;;;;;;2.33;1.00;;;19.70;1.00;;;;;;4976437;28;20050;-35
2023/04/15 01:37:26;;;;;;;4.80;0.82;;;19.70;1.00;;;;;;4994147;28;20453;-35
2023/04/15 01:39:53;;;;;;;3.10;0.73;;;19.70;1.00;;;;;;4976690;28;20053;-36
2023/04/15 01:42:21;;;;;;;1.33;0.68;;;19.60;1.00;;;;;;4976089;28;20490;-35
2023/04/15 01:44:48;;;;;;;2.75;0.95;;;19.70;1.00;;;;;;4976306;28;20046;-35
2023/04/15 01:47:15;;;;;;;2.80;0.75;;;19.60;1.00;;;;;;4976464;28;20046;-35
2023/04/15 01:49:41;;;;;;;2.50;1.10;;;19.60;1.00;;;;;;4976443;28;20441;-35
2023/04/15 01:52:08;;;;;;;2.58;1.02;;;19.60;1.00;;;;;;4993941;28;20034;-35
2023/04/15 01:54:35;;;;;;;3.28;0.90;;;19.60;1.00;;;;;;4975963;28;20047;-35
2023/04/15 01:57:02;;;;;;;2.00;0.75;;;19.60;1.00;;;;;;4976288;28;20047;-35
2023/04/15 01:59:30;;;;;;;2.60;0.95;;;19.50;1.00;;;;;;4976429;28;20046;-35
2023/04/15 02:01:58;;;;;;;5.22;0.77;;;19.50;1.00;;;;;;4976266;28;20105;-35
2023/04/15 02:04:26;;;;;;;1.75;1.00;;;19.50;1.00;;;;;;4975365;28;20043;-35
2023/04/15 02:06:53;;;;;;;3.30;1.33;;;19.50;1.00;;;;;;4976108;28;20042;-35
2023/04/15 02:09:20;;;;;;;4.15;0.90;;;19.50;1.00;;;;;;4976000;28;20069;-36
2023/04/15 02:11:47;;;;;;;3.63;1.00;;;19.50;1.00;;;;;;4976096;28;20073;-35
2023/04/15 02:14:14;;;;;;;3.22;1.15;;;19.50;1.00;;;;;;4975110;28;20081;-35
2023/04/15 02:16:41;;;;;;;4.13;0.80;;;19.40;1.00;;;;;;4993475;28;20133;-35
2023/04/15 02:19:08;;;;;;;2.67;0.70;;;19.40;1.00;;;;;;4993384;28;20521;-35
2023/04/15 02:21:36;;;;;;;1.65;0.50;;;19.40;1.00;;;;;;4993379;28;20545;-35
2023/04/15 02:24:03;;;;;;;2.13;0.73;;;19.40;1.00;;;;;;4992386;28;20054;-35
2023/04/15 02:26:33;;;;;;;1.75;1.02;;;19.40;1.00;;;;;;4993299;28;20090;-35
2023/04/15 02:29:00;;;;;;;3.72;1.23;;;19.40;1.00;;;;;;4993312;28;20038;-35
2023/04/15 02:31:27;;;;;;;5.13;1.10;;;19.40;1.00;;;;;;4975699;28;20462;-35
2023/04/15 02:33:54;;;;;;;3.42;0.82;;;19.40;1.00;;;;;;4992371;28;20053;-35
2023/04/15 02:36:20;;;;;;;3.40;1.10;;;19.30;1.00;;;;;;4993116;28;20065;-35
2023/04/15 02:38:47;;;;;;;2.58;1.17;;;19.30;1.00;;;;;;4993059;28;20050;-35
2023/04/15 02:41:16;;;;;;;5.38;0.70;;;19.30;1.00;;;;;;4975473;28;20046;-35
2023/04/15 02:43:44;;;;;;;1.85;0.80;;;19.30;1.00;;;;;;4974705;28;20517;-35
2023/04/15 02:46:13;;;;;;;5.43;0.80;;;19.30;1.00;;;;;;4975531;28;20591;-35
2023/04/15 02:48:40;;;;;;;3.03;1.17;;;19.30;1.00;;;;;;4975428;28;20058;-35
2023/04/15 02:51:19;;;;;;;4.85;1.05;;;19.30;1.00;;;;;;4975299;28;20526;-35
2023/04/15 02:53:47;;;;;;;2.75;1.10;;;19.20;1.00;;;;;;4992140;28;20422;-35
2023/04/15 02:56:16;;;;;;;2.40;0.70;;;19.20;1.00;;;;;;4975401;28;20046;-35
2023/04/15 02:58:44;;;;;;;4.80;1.10;;;19.20;1.00;;;;;;4975323;28;20053;-35
2023/04/15 03:01:11;;;;;;;2.03;0.93;;;19.20;1.00;;;;;;4975236;28;20056;-36
2023/04/15 03:03:39;;;;;;;4.45;1.10;;;19.20;1.00;;;;;;4974310;28;20049;-36
2023/04/15 03:06:07;;;;;;;2.15;1.00;;;19.20;1.00;;;;;;4975199;28;20545;-36
2023/04/15 03:08:35;;;;;;;4.63;1.60;;;19.20;1.00;;;;;;4975166;28;20042;-36
2023/04/15 03:11:02;;;;;;;1.65;0.75;;;19.20;1.00;;;;;;4975263;28;20105;-36
2023/04/15 03:13:30;;;;;;;1.85;0.88;;;19.10;1.00;;;;;;4974411;28;20068;-36
2023/04/15 03:15:59;;;;;;;2.65;1.08;;;19.10;1.00;;;;;;4975099;28;20458;-36
2023/04/15 03:18:28;;;;;;;4.40;1.48;;;19.10;1.00;;;;;;4975160;28;20053;-36
2023/04/15 03:20:55;;;;;;;3.05;0.88;;;19.10;1.00;;;;;;4975115;28;20050;-36
2023/04/15 03:23:22;;;;;;;2.80;1.00;;;19.10;1.00;;;;;;4974278;28;20110;-36
2023/04/15 03:25:49;;;;;;;3.45;1.33;;;19.10;1.00;;;;;;4975128;28;20045;-36
2023/04/15 03:28:16;;;;;;;4.55;1.00;;;19.10;1.00;;;;;;4992611;28;20046;-36
2023/04/15 03:30:43;;;;;;;3.00;1.08;;;19.10;1.00;;;;;;4974941;28;20038;-36
2023/04/15 03:33:10;;;;;;;4.50;1.48;;;19.00;1.00;;;;;;4974114;28;20062;-36
2023/04/15 03:35:37;;;;;;;4.18;1.23;;;19.00;1.00;;;;;;4975010;28;20050;-36
2023/04/15 03:38:04;;;;;;;2.75;0.93;;;19.00;1.00;;;;;;4992489;28;20486;-36
2023/04/15 03:40:31;;;;;;;4.30;1.00;;;19.00;1.00;;;;;;4992401;28;20057;-36
2023/04/15 03:42:58;;;;;;;3.30;1.02;;;19.00;1.00;;;;;;4991478;28;20059;-36
2023/04/15 03:45:25;;;;;;;3.97;1.52;;;19.00;1.00;;;;;;4992360;28;20081;-36
2023/04/15 03:47:51;;;;;;;3.20;1.17;;;19.00;1.00;;;;;;4992298;28;20454;-36
2023/04/15 03:50:18;;;;;;;4.03;0.98;;;19.00;1.00;;;;;;4975234;28;20426;-36
2023/04/15 03:52:45;;;;;;;2.70;0.93;;;19.00;1.00;;;;;;4992160;28;20042;-36
2023/04/15 03:55:12;;;;;;;1.90;0.70;;;18.90;1.00;;;;;;4996095;28;20104;-37
2023/04/15 03:57:38;;;;;;;2.25;0.98;;;19.00;1.00;;;;;;4996080;28;20510;-36
2023/04/15 04:00:08;;;;;;;3.65;1.10;;;18.90;1.00;;;;;;4996012;28;20533;-36
2023/04/15 04:02:37;;;;;;;4.45;0.90;;;18.90;1.00;;;;;;4995243;28;20101;-36
2023/04/15 04:05:05;;;;;;;2.47;1.25;;;18.90;1.00;;;;;;4996001;28;20461;-36
2023/04/15 04:07:32;;;;;;;3.25;0.80;;;18.90;1.00;;;;;;4995947;28;20042;-36
2023/04/15 04:09:59;;;;;;;1.38;0.80;;;18.90;1.00;;;;;;4995986;28;20089;-36
2023/04/15 04:12:25;;;;;;;3.08;0.82;;;18.90;1.00;;;;;;4995306;28;20443;-36
2023/04/15 04:14:52;;;;;;;6.03;1.30;;;18.90;1.00;;;;;;4995342;28;20058;-37
2023/04/15 04:17:19;;;;;;;2.67;1.30;;;18.80;1.00;;;;;;4995616;28;20049;-36
2023/04/15 04:19:46;;;;;;;3.13;1.20;;;18.80;1.00;;;;;;4995664;28;20060;-36
2023/04/15 04:22:12;;;;;;;1.85;1.17;;;18.80;1.00;;;;;;4995388;28;20117;-36
2023/04/15 04:24:39;;;;;;;6.68;1.55;;;18.80;1.00;;;;;;4995057;28;20042;-36
2023/04/15 04:27:06;;;;;;;4.57;2.08;;;18.80;1.00;;;;;;4995542;28;20039;-36
2023/04/15 04:29:32;;;;;;;2.30;1.23;;;18.80;1.00;;;;;;4995548;28;20105;-36
2023/04/15 04:31:59;;;;;;;4.60;1.23;;;18.80;1.00;;;;;;4995359;28;20117;-36
2023/04/15 04:34:26;;;;;;;4.50;2.03;;;18.70;1.00;;;;;;5019716;22;20056;-36
2023/04/15 04:36:53;;;;;;;3.90;1.30;;;18.80;1.00;;;;;;5014688;28;20054;-35
2023/04/15 04:39:20;;;;;;;3.42;1.23;;;18.70;1.00;;;;;;5014787;28;20046;-35
2023/04/15 04:41:46;;;;;;;3.10;1.08;;;18.80;1.00;;;;;;4997075;28;20573;-35
2023/04/15 04:44:13;;;;;;;3.78;0.98;;;18.70;1.00;;;;;;5004407;28;21012;-36
2023/04/15 04:46:40;;;;;;;2.47;1.83;;;18.70;1.00;;;;;;4999542;28;20052;-35
2023/04/15 04:49:06;;;;;;;1.92;1.02;;;18.70;1.00;;;;;;4976145;28;20490;-35
2023/04/15 04:51:33;;;;;;;4.88;1.42;;;18.70;1.00;;;;;;5009590;28;20266;-36
2023/04/15 04:54:00;;;;;;;2.95;1.13;;;18.70;1.00;;;;;;5013650;28;20132;-35
2023/04/15 04:56:29;;;;;;;2.95;1.15;;;18.70;1.00;;;;;;5014400;28;20046;-35
2023/04/15 04:58:56;;;;;;;1.58;0.80;;;18.70;1.00;;;;;;5014548;28;20041;-35
2023/04/15 05:01:23;;;;;;;4.82;1.17;;;18.60;1.00;;;;;;5014459;28;20046;-35
2023/04/15 05:03:50;;;;;;;3.53;1.40;;;18.60;1.00;;;;;;5013001;28;20061;-35
2023/04/15 05:06:16;;;;;;;3.25;1.00;;;18.60;1.00;;;;;;5013557;28;20057;-35
2023/04/15 05:08:43;;;;;;;2.85;1.33;;;18.60;1.00;;;;;;5014309;28;20116;-35
2023/04/15 05:11:10;;;;;;;3.28;1.30;;;18.60;1.00;;;;;;5014259;28;20046;-35
2023/04/15 05:13:37;;;;;;;5.13;1.30;;;18.60;1.00;;;;;;5013411;28;20041;-35
2023/04/15 05:16:05;;;;;;;2.58;1.33;;;18.60;1.00;;;;;;5014199;28;20049;-35
2023/04/15 05:18:32;;;;;;;3.45;1.02;;;18.60;1.00;;;;;;5013961;28;20069;-35
2023/04/15 05:20:59;;;;;;;3.03;1.00;;;18.60;1.00;;;;;;5013973;28;20096;-35
2023/04/15 05:23:26;;;;;;;3.55;1.58;;;18.50;1.00;;;;;;5013090;28;20041;-35
2023/04/15 05:25:53;;;;;;;3.13;0.85;;;18.60;1.00;;;;;;5014047;28;20437;-36
2023/04/15 05:28:20;;;;;;;3.88;1.55;;;18.50;1.00;;;;;;4996432;28;20044;-36
2023/04/15 05:30:46;;;;;;;1.98;1.00;;;18.50;1.00;;;;;;5013826;28;20046;-36
2023/04/15 05:33:13;;;;;;;2.20;1.17;;;18.50;1.00;;;;;;5013278;28;20081;-36
2023/04/15 05:35:40;;;;;;;1.95;0.90;;;18.50;1.00;;;;;;5013887;28;20046;-36
2023/04/15 05:38:07;;;;;;;4.38;2.67;;;18.50;1.00;;;;;;5013687;28;20042;-36
2023/04/15 05:40:34;;;;;;;1.95;0.75;;;18.50;1.00;;;;;;5013810;28;20402;-36
2023/04/15 05:43:00;;;;;;;4.20;0.90;;;18.50;1.00;;;;;;5012801;28;20089;-36
2023/04/15 05:45:27;;;;;;;2.00;0.65;;;18.50;1.00;;;;;;5013540;28;20056;-36
2023/04/15 05:47:54;;;;;;;2.03;0.73;;;18.50;1.00;;;;;;5013348;28;20057;-36
2023/04/15 05:50:21;;;;;;;6.18;1.02;;;18.50;1.00;;;;;;5013706;28;20456;-36
2023/04/15 05:52:48;;;;;;;2.00;1.13;;;18.50;1.00;;;;;;5012544;28;20046;-36
2023/04/15 05:55:15;;;;;;;2.60;1.23;;;18.50;1.00;;;;;;5013458;28;20100;-36
2023/04/15 05:57:41;;;;;;;5.13;1.35;;;18.50;1.00;;;;;;5013334;28;20054;-36
2023/04/15 06:00:09;;;;;;;3.80;1.88;;;18.50;1.00;;;;;;5012188;28;20461;-36
2023/04/15 06:02:36;;;;;;;3.58;1.30;;;18.50;1.00;;;;;;5011817;28;20046;-36
2023/04/15 06:05:08;;;;;;;4.57;1.50;;;18.50;1.00;;;;;;5012936;28;20046;-36
2023/04/15 06:07:36;;;;;;;6.13;1.73;;;18.50;1.00;;;;;;5013128;28;20038;-36
2023/04/15 06:10:04;;;;;;;2.35;1.17;;;18.50;1.00;;;;;;5012935;28;20038;-36
2023/04/15 06:12:31;;;;;;;3.33;1.33;;;18.50;1.00;;;;;;5012687;28;20100;-36
2023/04/15 06:14:58;;;;;;;2.25;1.25;;;18.50;1.00;;;;;;5012541;28;20052;-36
2023/04/15 06:17:26;;;;;;;2.28;1.27;;;18.50;1.00;;;;;;5012744;28;20045;-36
2023/04/15 06:19:54;;;;;;;1.75;0.95;;;18.50;1.00;;;;;;5012967;28;20046;-36
2023/04/15 06:22:22;;;;;;;2.20;1.10;;;18.50;1.00;;;;;;5012507;28;20532;-36
2023/04/15 06:24:50;;;;;;;3.33;1.48;;;18.60;1.00;;;;;;5012445;28;20050;-36
2023/04/15 06:27:16;;;;;;;2.25;1.25;;;18.60;1.00;;;;;;5012865;28;20066;-36
2023/04/15 06:29:44;;;;;;;1.98;0.80;;;18.60;1.00;;;;;;5012685;28;20046;-36
2023/04/15 06:32:11;;;;;;;1.98;1.00;;;18.60;1.00;;;;;;5012776;28;20041;-36
2023/04/15 06:34:37;;;;;;;3.28;1.20;;;18.60;1.00;;;;;;5012068;28;20037;-36
2023/04/15 06:37:05;;;;;;;1.63;0.80;;;18.60;1.00;;;;;;5012744;28;20050;-36
2023/04/15 06:39:32;;;;;;;4.35;1.50;;;18.60;1.00;;;;;;5009370;28;20045;-36
2023/04/15 06:41:58;;;;;;;2.90;1.67;;;18.60;1.00;;;;;;5008178;28;20042;-36
2023/04/15 06:44:25;;;;;;;4.47;1.15;;;18.60;1.00;;;;;;5005758;28;20037;-36
2023/04/15 06:46:52;;;;;;;3.28;1.00;;;18.60;1.00;;;;;;5001363;28;20042;-36
2023/04/15 06:49:19;;;;;;;3.00;1.45;;;18.60;1.00;;;;;;5001866;28;20038;-35
2023/04/15 06:51:46;;;;;;;1.80;1.33;;;18.60;1.00;;;;;;5007030;28;20037;-36
2023/04/15 06:54:12;;;;;;;3.85;1.00;;;18.60;1.00;;;;;;5004515;28;20101;-35
2023/04/15 06:56:40;;;;;;;1.45;0.85;;;18.60;1.00;;;;;;5012130;28;20073;-36
2023/04/15 06:59:07;;;;;;;1.63;0.82;;;18.60;1.00;;;;;;5012464;28;20038;-36
2023/04/15 07:01:34;;;;;;;2.25;0.98;;;18.60;1.00;;;;;;5012018;28;20050;-36
2023/04/15 07:04:01;;;;;;;3.03;1.08;;;18.60;1.00;;;;;;5011468;28;20558;-36
2023/04/15 07:06:28;;;;;;;3.08;0.90;;;18.60;1.00;;;;;;5012275;28;20038;-36
2023/04/15 07:08:55;;;;;;;4.63;0.93;;;18.60;1.00;;;;;;4994568;28;20045;-36
2023/04/15 07:11:21;;;;;;;3.40;0.88;;;18.70;1.00;;;;;;5012057;28;20049;-36
2023/04/15 07:13:48;;;;;;;1.42;0.80;;;18.70;1.00;;;;;;5011233;28;20046;-36
2023/04/15 07:16:15;;;;;;;3.78;0.70;;;18.70;1.00;;;;;;5010810;28;20077;-37
2023/04/15 07:18:42;;;;;;;1.80;0.80;;;18.70;1.00;;;;;;5011923;28;20045;-36
2023/04/15 07:21:09;;;;;;;2.33;1.17;;;18.70;1.00;;;;;;5007701;28;20050;-36
2023/04/15 07:23:35;;;;;;;2.97;0.90;;;18.70;1.00;;;;;;5005126;28;20042;-36
2023/04/15 07:26:02;;;;;;;2.15;0.68;;;18.70;1.00;;;;;;5002774;28;20413;-36
2023/04/15 07:28:29;;;;;;;1.58;0.75;;;18.70;1.00;;;;;;5004839;28;20030;-36
2023/04/15 07:30:56;;;;;;;2.67;1.00;;;18.70;1.00;;;;;;5008202;28;20042;-36
2023/04/15 07:33:23;;;;;;;3.42;0.88;;;18.70;1.00;;;;;;5011395;28;20049;-36
2023/04/15 07:35:50;;;;;;;5.57;1.30;;;18.70;1.00;;;;;;5008385;28;20117;-36
2023/04/15 07:38:16;;;;;;;9.73;1.90;;;18.80;1.00;;;;;;5007095;28;20050;-36
2023/04/15 07:40:43;;;;;;;3.25;1.00;;;18.80;1.00;;;;;;5004723;28;20069;-37
2023/04/15 07:43:10;;;;;;;3.10;1.20;;;18.80;1.00;;;;;;5006137;28;20031;-36
2023/04/15 07:45:37;;;;;;;2.00;1.13;;;18.80;1.00;;;;;;5008743;28;20045;-36
2023/04/15 07:48:05;;;;;;;2.13;0.60;;;18.80;1.00;;;;;;5013323;28;20114;-36
2023/04/15 07:50:32;;;;;;;9.10;0.73;;;18.80;1.00;;;;;;5009826;28;20176;-36
2023/04/15 07:52:59;;;;;;;2.05;0.57;;;18.90;1.00;;;;;;5004747;28;20517;-36
2023/04/15 07:55:25;;;;;;;1.45;0.55;;;18.90;1.00;;;;;;5012040;28;20045;-36
2023/04/15 07:57:54;;;;;;;1.67;0.52;;;18.90;1.00;;;;;;5007056;28;20047;-36
2023/04/15 08:00:20;;;;;;;0.80;0.30;;;18.90;1.00;;;;;;5012790;28;20166;-36
2023/04/15 08:02:48;;;;;;;3.00;0.85;;;18.90;1.00;;;;;;5013914;28;20049;-36
2023/04/15 08:05:15;;;;;;;1.88;0.85;;;18.90;1.00;;;;;;5015225;28;20034;-36
2023/04/15 08:07:42;;;;;;;0.90;0.35;;;18.90;1.00;;;;;;5015441;28;20041;-36
2023/04/15 08:10:10;;;;;;;1.02;0.38;;;19.00;1.00;;;;;;5015448;28;20122;-36
2023/04/15 08:12:36;;;;;;;1.60;0.57;;;19.00;1.00;;;;;;5014798;28;20124;-36
2023/04/15 08:15:04;;;;;;;1.45;0.50;;;19.00;1.00;;;;;;5015268;28;20049;-36
2023/04/15 08:18:27;;;;;;;2.88;0.38;;;19.00;1.00;;;;;;5015313;28;20056;-36
2023/04/15 08:21:40;;;;;;;1.20;0.43;;;19.00;1.00;;;;;;5000868;28;20057;-35
2023/04/15 08:24:14;;;;;;;1.38;0.47;;;19.00;1.00;;;;;;5013640;28;20054;-36
2023/04/15 08:26:49;;;;;;;2.63;0.77;;;19.00;1.00;;;;;;5014848;28;20042;-36
2023/04/15 08:29:20;;;;;;;4.57;0.75;;;19.10;1.00;;;;;;5015116;28;20125;-35
2023/04/15 08:31:47;;;;;;;2.45;0.73;;;19.10;1.00;;;;;;5014381;28;20038;-35
2023/04/15 08:34:14;;;;;;;2.97;0.50;;;19.10;1.00;;;;;;5014102;28;20054;-35
2023/04/15 08:36:42;;;;;;;2.72;0.40;;;19.20;1.00;;;;;;5014895;28;20049;-35
2023/04/15 08:39:08;;;;;;;1.45;0.47;;;19.20;1.00;;;;;;5014516;28;20069;-35
2023/04/15 08:42:04;;;;;;;1.75;0.60;;;19.20;1.00;;;;;;5014653;28;20037;-36
2023/04/15 08:44:34;;;;;;;4.28;0.73;;;19.20;1.00;;;;;;5013888;28;20061;-36
2023/04/15 08:47:01;;;;;;;4.97;0.17;;;19.20;1.00;;;;;;5014566;28;20042;-36
2023/04/15 08:49:29;;;;;;;4.20;0.70;;;19.20;1.00;;;;;;5014717;28;20390;-36
2023/04/15 08:51:58;;;;;;;2.15;0.40;;;19.20;1.00;;;;;;5014474;28;20042;-36
2023/04/15 08:54:26;;;;;;;3.03;0.93;;;19.20;1.00;;;;;;5013720;28;20042;-36
2023/04/15 08:56:53;;;;;;;1.77;0.50;;;19.20;1.00;;;;;;5014409;28;20405;-36
2023/04/15 08:59:23;;;;;;;1.73;0.60;;;19.30;1.00;;;;;;5014446;28;20108;-36
2023/04/15 09:01:50;;;;;;;3.42;0.95;;;19.30;1.00;;;;;;5014395;28;20053;-35
2023/04/15 09:04:17;;;;;;;1.40;0.60;;;19.30;1.00;;;;;;5013499;28;20046;-36
2023/04/15 09:06:44;;;;;;;2.75;0.70;;;19.30;1.00;;;;;;5014220;28;20034;-35
2023/04/15 09:09:13;;;;;;;1.20;0.40;;;19.30;1.00;;;;;;5014284;28;20136;-35
2023/04/15 09:11:39;;;;;;;3.55;0.95;;;19.30;1.00;;;;;;5012749;28;20129;-35
2023/04/15 09:14:06;;;;;;;4.93;1.98;;;19.30;1.00;;;;;;5010473;28;20144;-36
2023/04/15 09:16:59;;;;;;;7.47;1.83;;;19.40;1.00;;;;;;5011897;28;20045;-36
2023/04/15 09:19:28;;;;;;;4.93;1.23;;;19.40;1.00;;;;;;5004557;28;20065;-36
2023/04/15 09:21:57;;;;;;;3.35;0.90;;;19.40;1.00;;;;;;5011943;28;20073;-35
2023/04/15 09:24:32;;;;;;;1.98;0.90;;;19.40;1.00;;;;;;5005229;28;20042;-35
2023/04/15 09:26:59;;;;;;;8.20;1.88;;;19.40;1.00;;;;;;5013906;28;20120;-35
2023/04/15 09:29:26;;;;;;;1.92;0.73;;;19.40;1.00;;;;;;5013731;28;20502;-36
2023/04/15 09:31:53;;;;;;;1.48;0.43;;;19.40;1.00;;;;;;5013727;28;20041;-35
2023/04/15 09:34:20;;;;;;;3.80;1.50;;;19.40;1.00;;;;;;5012957;28;20078;-35
2023/04/15 09:36:47;;;;;;;3.95;0.88;;;19.50;1.00;;;;;;5013694;28;20076;-35
2023/04/15 09:39:16;;;;;;;2.47;0.80;;;19.50;1.00;;;;;;5013445;28;20088;-36
2023/04/15 09:41:44;;;;;;;2.22;1.38;;;19.50;1.00;;;;;;5013632;28;20052;-36
2023/04/15 09:44:36;;;;;;;4.75;1.13;;;19.50;1.00;;;;;;5012823;28;20069;-36
2023/04/15 09:47:03;;;;;;;1.45;1.02;;;19.50;1.00;;;;;;5010941;28;20061;-36
2023/04/15 09:49:30;;;;;;;2.05;0.50;;;19.50;1.00;;;;;;5013463;28;20041;-35
2023/04/15 09:51:59;;;;;;;1.17;0.50;;;19.50;1.00;;;;;;5012729;28;20045;-36
2023/04/15 09:54:33;;;;;;;1.35;0.80;;;19.50;1.00;;;;;;5012561;28;20506;-36
2023/04/15 09:57:05;;;;;;;3.08;0.70;;;19.60;1.00;;;;;;5013257;28;20468;-36
2023/04/15 09:59:32;;;;;;;1.98;0.68;;;19.60;1.00;;;;;;5013128;28;20060;-36
2023/04/15 10:01:59;;;;;;;0.82;0.60;;;19.60;1.00;;;;;;5030306;28;20144;-35
2023/04/15 10:04:27;;;;;;;2.08;0.55;;;19.60;1.00;;;;;;5032058;28;20099;-35
2023/04/15 10:06:54;;;;;;;2.75;0.60;;;19.60;1.00;;;;;;5032907;28;20045;-35
2023/04/15 10:09:21;;;;;;;3.30;0.90;;;19.60;1.00;;;;;;5032877;28;20120;-36
2023/04/15 10:11:49;;;;;;;1.92;0.32;;;19.60;1.00;;;;;;5032748;28;20128;-36
2023/04/15 10:14:17;;;;;;;5.35;0.90;;;19.60;1.00;;;;;;5032060;28;20047;-35
2023/04/15 10:16:47;;;;;;;1.20;0.50;;;19.60;1.00;;;;;;5014839;28;20484;-35
2023/04/15 10:19:17;;;;;;;2.28;0.65;;;19.60;1.00;;;;;;5032597;28;20041;-36
2023/04/15 10:21:45;;;;;;;5.45;0.90;;;19.60;1.00;;;;;;5032438;28;20037;-36
2023/04/15 10:24:12;;;;;;;2.22;0.57;;;19.70;1.00;;;;;;5031555;28;20148;-36
2023/04/15 10:26:39;;;;;;;2.20;0.40;;;19.70;1.00;;;;;;5032248;28;20045;-35
2023/04/15 10:29:08;;;;;;;1.23;0.32;;;19.60;1.00;;;;;;5032151;28;20567;-36
2023/04/15 10:31:37;;;;;;;1.65;0.40;;;19.60;1.00;;;;;;5014739;28;20444;-36
2023/04/15 10:34:05;;;;;;;2.08;0.57;;;19.60;1.00;;;;;;5034749;22;20058;-36
2023/04/15 10:36:32;;;;;;;1.67;0.50;;;19.60;1.00;;;;;;4995122;28;20453;-36
2023/04/15 10:39:00;;;;;;;1.08;0.30;;;19.70;1.00;;;;;;5012438;28;20038;-36
2023/04/15 10:41:33;;;;;;;3.45;0.35;;;19.60;1.00;;;;;;5012428;28;20464;-36
2023/04/15 10:44:00;;;;;;;;;;;19.70;1.00;;;;;;5012245;28;20046;-36
2023/04/15 10:46:38;;;;;;;1.30;0.30;;;19.60;1.00;;;;;;5012550;28;19921;-36
2023/04/15 10:49:14;;;;;;;1.02;0.47;;;19.60;1.00;;;;;;5012655;28;20046;-36
2023/04/15 10:51:50;;;;;;;0.63;0.40;;;19.60;1.00;;;;;;5012416;28;20034;-36
2023/04/15 10:54:26;;;;;;;1.35;0.40;;;19.60;1.00;;;;;;5011687;28;20045;-36
2023/04/15 10:57:07;;;;;;;1.45;0.52;;;19.60;1.00;;;;;;5012503;28;20050;-36
2023/04/15 10:59:58;;;;;;;2.08;0.55;;;19.60;1.00;;;;;;5012383;28;20045;-36
2023/04/15 11:02:43;;;;;;;0.93;0.43;;;19.60;1.00;;;;;;5011878;28;20052;-36
2023/04/15 11:05:15;;;;;;;2.42;0.40;;;19.60;1.00;;;;;;5012228;28;20046;-36
2023/04/15 11:07:54;;;;;;;1.83;0.57;;;19.60;1.00;;;;;;5012254;28;20046;-36
2023/04/15 11:10:32;;;;;;;1.00;0.47;;;19.60;1.00;;;;;;5012261;28;20490;-36
2023/04/15 11:13:13;;;;;;;1.02;0.40;;;19.60;1.00;;;;;;5011438;28;20042;-37
2023/04/15 11:15:45;;;;;;;1.20;0.30;;;19.60;1.00;;;;;;5012241;28;20046;-36
2023/04/15 11:18:16;;;;;;;2.20;0.60;;;19.60;1.00;;;;;;5012312;28;20092;-36
2023/04/15 11:20:47;;;;;;;4.72;1.08;;;19.60;1.00;;;;;;5012096;28;20053;-36
2023/04/15 11:23:15;;;;;;;3.33;0.40;;;19.60;1.00;;;;;;5011251;28;20049;-36
2023/04/15 11:25:46;;;;;;;0.95;0.60;;;19.60;1.00;;;;;;5012041;28;20037;-36
2023/04/15 11:28:13;;;;;;;1.25;0.45;;;19.60;1.00;;;;;;5012115;28;20046;-36
2023/04/15 11:30:42;;;;;;;3.72;0.70;;;19.50;1.00;;;;;;5012062;28;20085;-36
2023/04/15 11:33:13;;;;;;;0.95;0.50;;;19.60;1.00;;;;;;5011158;28;20045;-37
2023/04/15 11:35:41;;;;;;;0.95;0.30;;;19.60;1.00;;;;;;5011922;28;20448;-36
2023/04/15 11:38:15;;;;;;;1.75;0.45;;;19.50;1.00;;;;;;5012018;28;20498;-36
2023/04/15 11:40:43;;;;;;;1.95;0.70;;;19.50;1.00;;;;;;5012074;28;20053;-36
2023/04/15 11:43:15;;;;;;;1.38;0.30;;;19.50;1.00;;;;;;5011058;28;20498;-36
2023/04/15 11:45:53;;;;;;;1.02;0.47;;;19.50;1.00;;;;;;5011905;28;20056;-36
2023/04/15 11:48:23;;;;;;;1.48;0.35;;;19.50;1.00;;;;;;5011983;28;20408;-36
2023/04/15 11:51:02;;;;;;;1.58;0.63;;;19.50;1.00;;;;;;5011755;28;20521;-36
2023/04/15 11:53:43;;;;;;;3.13;0.35;;;19.50;1.00;;;;;;5011063;28;20042;-37
2023/04/15 11:56:16;;;;;;;1.40;0.30;;;19.50;1.00;;;;;;5011932;28;20054;-36
2023/04/15 11:58:43;;;;;;;1.05;0.35;;;19.50;1.00;;;;;;5011813;28;20050;-36
2023/04/15 12:01:10;;;;;;;3.40;0.73;;;19.50;1.00;;;;;;5011413;28;20121;-36
2023/04/15 12:03:42;;;;;;;2.05;0.73;;;19.40;1.00;;;;;;5010928;28;20056;-36
2023/04/15 12:06:23;;;;;;;1.75;0.45;;;19.50;1.00;;;;;;5011674;28;20490;-36
2023/04/15 12:08:59;;;;;;;1.60;0.40;;;19.40;1.00;;;;;;5011728;28;20089;-37
2023/04/15 12:11:25;;;;;;;3.35;0.82;;;19.40;1.00;;;;;;5011738;28;20046;-36
2023/04/15 12:13:55;;;;;;;2.38;0.43;;;19.40;1.00;;;;;;5011687;28;20038;-36
2023/04/15 12:16:23;;;;;;;1.20;0.50;;;19.40;1.00;;;;;;5015356;28;20038;-36
2023/04/15 12:18:51;;;;;;;1.25;0.98;;;19.40;1.00;;;;;;5015381;28;20077;-36
2023/04/15 12:21:19;;;;;;;1.42;0.43;;;19.40;1.00;;;;;;5015020;28;20149;-36
2023/04/15 12:23:53;;;;;;;3.30;0.45;;;19.40;1.00;;;;;;5014328;28;20416;-36
2023/04/15 12:26:29;;;;;;;1.05;0.43;;;19.40;1.00;;;;;;5014993;28;20125;-36
2023/04/15 12:29:01;;;;;;;1.35;0.57;;;19.40;1.00;;;;;;5015146;28;20041;-36
2023/04/15 12:31:28;;;;;;;1.60;0.60;;;19.40;1.00;;;;;;5015156;28;20064;-36
2023/04/15 12:33:56;;;;;;;2.00;0.52;;;19.40;1.00;;;;;;5013961;28;20504;-36
2023/04/15 12:36:23;;;;;;;3.10;0.93;;;19.40;1.00;;;;;;5014959;28;20054;-36
2023/04/15 12:38:50;;;;;;;1.30;0.80;;;19.40;1.00;;;;;;5014955;28;20048;-36
2023/04/15 12:41:18;;;;;;;1.75;0.50;;;19.40;1.00;;;;;;5014759;28;20053;-36
2023/04/15 12:43:45;;;;;;;3.13;0.50;;;19.40;1.00;;;;;;5014002;28;20053;-36
2023/04/15 12:46:14;;;;;;;2.30;0.55;;;19.40;1.00;;;;;;5014426;28;20080;-36
2023/04/15 12:48:41;;;;;;;2.33;0.45;;;19.40;1.00;;;;;;5014651;28;20046;-36
2023/04/15 12:51:08;;;;;;;2.20;0.60;;;19.40;1.00;;;;;;5014554;28;20049;-36
2023/04/15 12:53:35;;;;;;;2.38;0.90;;;19.40;1.00;;;;;;5013804;28;20042;-36
2023/04/15 12:56:02;;;;;;;0.93;0.50;;;19.40;1.00;;;;;;5014618;28;20038;-36
2023/04/15 12:58:28;;;;;;;4.85;1.02;;;19.40;1.00;;;;;;4997052;28;20041;-36
2023/04/15 13:00:56;;;;;;;1.73;0.57;;;19.40;1.00;;;;;;5014392;28;20042;-36
2023/04/15 13:03:22;;;;;;;1.88;0.85;;;19.40;1.00;;;;;;5013532;28;20080;-36
2023/04/15 13:05:50;;;;;;;4.50;0.75;;;19.40;1.00;;;;;;5014316;28;20066;-36